This is the latest recevied weather packets stored in our database for station/object K0BMM-13. If no packets are shown the sender has not sent any weather packets the latest 10 day(s).
| Time | Temp. | Humidity | Pressure | Rain* | Wind** | Luminosity | Snow |
|---|---|---|---|---|---|---|---|
| 1788143675 | 73° F | 94% | - | 0 in | - | - | - |
| 1788142775 | 74° F | 94% | - | 0 in | - | - | - |
| 1788141875 | 74° F | 94% | - | 0 in | - | - | - |
| 1788140975 | 74° F | 94% | - | 0 in | - | - | - |
| 1788140075 | 74° F | 93% | - | 0.05 in | - | - | - |
| 1788139175 | 73° F | 94% | - | 0.2 in | - | - | - |
| 1788138275 | 73° F | 92% | - | 0.2 in | - | - | - |
| 1788137374 | 73° F | 90% | - | 0.2 in | - | - | - |
| 1788136474 | 73° F | 88% | - | 0.2 in | - | - | - |
| 1788135574 | 75° F | 81% | - | 0 in | - | - | - |
| 1788134674 | 79° F | 70% | - | 0 in | - | - | - |
| 1788133774 | 84° F | 66% | - | 0 in | - | - | - |
| 1788132874 | 84° F | 66% | - | 0 in | - | - | - |
| 1788131974 | 84° F | 65% | - | 0 in | - | - | - |
| 1788131074 | 85° F | 63% | - | 0 in | - | - | - |
| 1788130173 | 85° F | 62% | - | 0 in | - | - | - |
| 1788129273 | 86° F | 60% | - | 0 in | - | - | - |
| 1788128373 | 87° F | 59% | - | 0 in | - | - | - |
| 1788127473 | 88° F | 57% | - | 0 in | - | - | - |
| 1788126573 | 89° F | 55% | - | 0 in | - | - | - |
| 1788125673 | 90° F | 54% | - | 0 in | - | - | - |
| 1788124773 | 90° F | 53% | - | 0 in | - | - | - |
| 1788123873 | 91° F | 51% | - | 0 in | - | - | - |
| 1788122972 | 91° F | 52% | - | 0 in | - | - | - |
| 1788122072 | 92° F | 51% | - | 0 in | - | - | - |
* Rain latest hour (hover to see other rain measurements)
** Current wind speed in m/s (hover to see current wind gust speed)